Time;durP1;ratioP1;P1;durP2;ratioP2;P2;SDS_P1;SDS_P2;PMS_P1;PMS_P2;Temp;Humidity;BMP_temperature;BMP_pressure;BME280_temperature;BME280_humidity;BME280_pressure;Samples;Min_cycle;Max_cycle;Signal;HPM_P1;HPM_P2
2023/07/10 00:01:05;;;;;;;4.95;4.00;;;29.10;96.70;;;;;;4941583;28;20047;-83
2023/07/10 00:03:33;;;;;;;8.20;4.13;;;29.00;96.70;;;;;;4946174;28;20486;-83
2023/07/10 00:06:05;;;;;;;4.93;4.10;;;29.00;96.70;;;;;;4951870;28;20107;-82
2023/07/10 00:08:34;;;;;;;5.53;3.90;;;29.00;96.70;;;;;;4949525;28;20085;-84
2023/07/10 00:11:02;;;;;;;6.18;3.90;;;29.10;96.70;;;;;;4951569;28;20043;-83
2023/07/10 00:13:31;;;;;;;6.80;3.55;;;29.00;96.70;;;;;;4951278;28;20047;-82
2023/07/10 00:15:59;;;;;;;5.25;3.90;;;29.00;96.70;;;;;;4965604;28;20043;-83
2023/07/10 00:18:28;;;;;;;5.65;3.85;;;28.90;96.70;;;;;;4958884;28;20047;-82
2023/07/10 00:20:56;;;;;;;7.05;4.22;;;28.90;96.70;;;;;;4951512;28;20103;-83
2023/07/10 00:23:26;;;;;;;5.35;4.00;;;28.80;96.70;;;;;;4965471;28;20061;-84
2023/07/10 00:25:54;;;;;;;5.65;3.80;;;28.80;96.70;;;;;;4957031;28;20054;-83
2023/07/10 00:28:25;;;;;;;4.25;3.55;;;28.70;96.70;;;;;;4954133;28;20055;-84
2023/07/10 00:30:56;;;;;;;7.80;4.00;;;28.60;96.70;;;;;;4957074;28;20161;-83
2023/07/10 00:33:24;;;;;;;8.07;4.63;;;28.60;96.70;;;;;;4941722;29;20077;-84
2023/07/10 00:35:52;;;;;;;8.93;3.85;;;28.60;96.70;;;;;;4951877;28;20043;-81
2023/07/10 00:38:25;;;;;;;5.07;4.10;;;28.70;96.70;;;;;;4949709;28;20531;-81
2023/07/10 00:40:58;;;;;;;5.75;3.85;;;28.60;96.70;;;;;;4960172;28;20856;-81
2023/07/10 00:43:35;;;;;;;4.50;4.10;;;28.60;96.70;;;;;;4962874;28;20070;-81
2023/07/10 00:46:15;;;;;;;5.50;3.53;;;28.60;96.70;;;;;;4945140;28;20054;-82
2023/07/10 00:48:50;;;;;;;5.88;4.22;;;28.60;96.70;;;;;;4960927;28;20061;-82
2023/07/10 00:51:23;;;;;;;10.05;4.70;;;28.50;96.70;;;;;;4951503;28;20070;-82
2023/07/10 00:53:53;;;;;;;7.90;4.15;;;28.50;96.70;;;;;;4962712;28;20074;-82
2023/07/10 00:56:24;;;;;;;6.47;4.10;;;28.50;96.70;;;;;;4941271;28;20062;-83
2023/07/10 00:59:20;;;;;;;6.45;4.07;;;28.50;96.70;;;;;;4943553;28;20143;-81
2023/07/10 01:02:17;;;;;;;5.35;4.65;;;28.40;96.70;;;;;;4946943;29;20057;-81
2023/07/10 01:04:52;;;;;;;5.72;4.10;;;28.20;96.70;;;;;;4951563;28;20086;-81
2023/07/10 01:07:23;;;;;;;5.88;3.35;;;28.20;96.70;;;;;;4958625;28;20142;-82
2023/07/10 01:09:55;;;;;;;5.38;3.88;;;28.30;96.70;;;;;;4938663;28;20047;-81
2023/07/10 01:12:26;;;;;;;6.53;4.53;;;28.40;96.70;;;;;;4935943;28;20482;-82
2023/07/10 01:14:55;;;;;;;6.20;4.40;;;28.50;96.70;;;;;;4935169;28;20051;-82
2023/07/10 01:17:24;;;;;;;6.20;3.70;;;28.40;96.70;;;;;;4951462;28;20131;-81
2023/07/10 01:19:59;;;;;;;6.97;3.70;;;28.40;96.70;;;;;;4961444;28;20071;-82
2023/07/10 01:22:30;;;;;;;5.40;3.95;;;28.40;96.70;;;;;;4942215;28;20181;-82
2023/07/10 01:24:59;;;;;;;4.50;3.85;;;28.40;96.70;;;;;;4942286;28;20047;-81
2023/07/10 01:27:28;;;;;;;6.00;3.90;;;28.30;96.70;;;;;;4952022;28;20749;-82
2023/07/10 01:30:02;;;;;;;5.57;3.90;;;28.20;96.70;;;;;;4959957;28;20580;-82
2023/07/10 01:32:31;;;;;;;5.05;3.92;;;28.20;96.70;;;;;;4950445;28;20054;-83
2023/07/10 01:35:03;;;;;;;7.18;4.30;;;28.30;96.70;;;;;;4942633;28;20058;-83
2023/07/10 01:37:33;;;;;;;5.47;4.28;;;28.20;96.70;;;;;;4942532;28;20055;-83
2023/07/10 01:40:03;;;;;;;7.68;4.43;;;28.10;96.70;;;;;;4948325;28;20359;-84
2023/07/10 01:42:31;;;;;;;6.07;3.88;;;28.10;96.70;;;;;;4951032;28;20047;-84
2023/07/10 01:45:00;;;;;;;6.60;4.05;;;28.10;96.70;;;;;;4963710;28;20054;-85
2023/07/10 01:47:29;;;;;;;10.73;4.40;;;28.10;96.70;;;;;;4952780;28;20051;-82
2023/07/10 01:49:59;;;;;;;5.70;3.80;;;28.10;96.70;;;;;;4951061;28;20043;-82
2023/07/10 01:52:27;;;;;;;6.65;3.90;;;28.00;96.70;;;;;;4953029;28;20054;-83
2023/07/10 01:54:58;;;;;;;5.75;4.15;;;28.00;96.70;;;;;;4940023;29;20058;-82
2023/07/10 01:57:27;;;;;;;6.03;4.40;;;28.00;96.70;;;;;;4961303;28;20428;-82
2023/07/10 01:59:56;;;;;;;6.20;4.05;;;28.00;96.70;;;;;;4946477;28;20106;-82
2023/07/10 02:02:24;;;;;;;5.03;3.90;;;28.00;96.70;;;;;;4953177;28;20051;-82
2023/07/10 02:04:53;;;;;;;5.35;4.22;;;27.80;96.70;;;;;;4934299;29;20055;-82
2023/07/10 02:07:21;;;;;;;5.72;4.10;;;27.80;96.70;;;;;;4946438;28;20738;-82
2023/07/10 02:09:50;;;;;;;7.22;3.90;;;27.70;96.70;;;;;;4930926;29;20043;-81
2023/07/10 02:12:20;;;;;;;4.38;3.90;;;27.60;96.70;;;;;;4929725;29;20059;-82
2023/07/10 02:14:48;;;;;;;5.22;4.05;;;27.50;96.70;;;;;;4931520;29;20044;-82
2023/07/10 02:17:16;;;;;;;5.82;4.18;;;27.50;96.70;;;;;;4931112;29;20103;-82
2023/07/10 02:19:44;;;;;;;7.45;4.38;;;27.50;96.70;;;;;;4930865;28;20056;-82
2023/07/10 02:22:12;;;;;;;6.10;4.55;;;27.50;96.70;;;;;;4942278;28;20051;-83
2023/07/10 02:24:41;;;;;;;6.15;3.70;;;27.50;96.70;;;;;;4935095;29;20039;-83
2023/07/10 02:27:10;;;;;;;6.25;3.75;;;27.40;96.70;;;;;;4932643;29;20054;-83
2023/07/10 02:29:39;;;;;;;5.63;4.15;;;27.50;96.70;;;;;;4929330;29;20055;-83
2023/07/10 02:32:10;;;;;;;5.18;3.92;;;27.40;96.70;;;;;;4929711;29;20050;-83
2023/07/10 02:34:38;;;;;;;7.25;4.03;;;27.40;96.70;;;;;;4941690;28;20585;-83
2023/07/10 02:37:06;;;;;;;5.30;3.92;;;27.50;96.70;;;;;;4929289;29;20071;-82
2023/07/10 02:39:34;;;;;;;6.47;4.35;;;27.40;96.70;;;;;;4929057;29;20114;-83
2023/07/10 02:42:02;;;;;;;7.80;4.68;;;27.30;96.70;;;;;;4929634;29;20111;-83
2023/07/10 02:44:30;;;;;;;5.13;4.15;;;27.20;96.70;;;;;;4928849;29;20082;-83
2023/07/10 02:47:00;;;;;;;5.35;4.53;;;27.10;96.70;;;;;;4930628;29;20044;-82
2023/07/10 02:49:28;;;;;;;6.78;4.20;;;27.10;96.70;;;;;;4923684;29;20090;-83
2023/07/10 02:51:55;;;;;;;4.43;3.50;;;27.20;96.70;;;;;;4930869;29;20103;-81
2023/07/10 02:54:24;;;;;;;5.28;3.95;;;27.30;96.70;;;;;;4929400;29;20679;-83
2023/07/10 02:56:51;;;;;;;5.03;4.40;;;27.20;96.70;;;;;;4928938;29;20098;-83
2023/07/10 02:59:24;;;;;;;6.03;4.18;;;27.20;96.70;;;;;;4930057;29;20048;-82
2023/07/10 03:01:52;;;;;;;4.65;3.35;;;27.20;96.70;;;;;;4945051;28;20557;-83
2023/07/10 03:04:22;;;;;;;7.82;3.70;;;27.20;96.70;;;;;;4930165;29;20044;-82
2023/07/10 03:06:50;;;;;;;6.55;4.72;;;27.20;96.70;;;;;;4928363;29;20520;-81
2023/07/10 03:09:18;;;;;;;6.10;4.38;;;27.20;96.70;;;;;;4928030;29;20114;-82
2023/07/10 03:11:46;;;;;;;5.72;4.03;;;27.10;96.70;;;;;;4928805;29;20048;-83
2023/07/10 03:14:14;;;;;;;6.88;4.60;;;27.00;96.70;;;;;;4927922;29;20072;-83
2023/07/10 03:16:42;;;;;;;5.35;3.80;;;26.90;96.70;;;;;;4928897;29;20063;-83
2023/07/10 03:19:11;;;;;;;5.22;4.30;;;27.00;96.70;;;;;;4929373;29;20047;-83
2023/07/10 03:21:40;;;;;;;7.90;5.28;;;27.10;96.70;;;;;;4933225;29;20055;-82
2023/07/10 03:24:09;;;;;;;7.72;4.90;;;27.00;96.70;;;;;;4929756;29;20506;-82
2023/07/10 03:26:37;;;;;;;7.60;4.70;;;26.90;96.70;;;;;;4944256;28;20142;-82
2023/07/10 03:29:07;;;;;;;6.68;4.55;;;26.90;96.70;;;;;;4929623;29;20050;-82
2023/07/10 03:31:35;;;;;;;8.98;5.53;;;26.90;96.70;;;;;;4943933;28;20047;-82
2023/07/10 03:34:04;;;;;;;5.22;4.43;;;26.80;96.70;;;;;;4927768;29;20106;-82
2023/07/10 03:36:33;;;;;;;6.07;4.18;;;26.80;96.70;;;;;;4928020;29;21312;-82
2023/07/10 03:39:03;;;;;;;5.32;4.05;;;26.80;96.70;;;;;;4928586;29;20055;-83
2023/07/10 03:41:32;;;;;;;8.68;4.57;;;26.80;96.70;;;;;;4929119;29;20048;-82
2023/07/10 03:44:00;;;;;;;6.82;4.53;;;26.90;96.70;;;;;;4927701;29;20040;-83
2023/07/10 03:46:28;;;;;;;6.95;4.43;;;26.90;96.70;;;;;;4937672;29;20048;-82
2023/07/10 03:48:56;;;;;;;6.65;4.30;;;27.00;96.70;;;;;;4921041;29;20036;-83
2023/07/10 03:51:23;;;;;;;8.35;4.70;;;26.90;96.70;;;;;;4944743;28;20251;-83
2023/07/10 03:53:51;;;;;;;6.80;4.47;;;26.80;96.70;;;;;;4942684;29;20147;-82
2023/07/10 03:56:21;;;;;;;6.38;3.92;;;26.70;96.70;;;;;;4928329;29;20051;-80
2023/07/10 03:58:49;;;;;;;6.40;4.60;;;26.70;96.70;;;;;;4929740;29;20042;-83
2023/07/10 04:01:17;;;;;;;6.15;4.50;;;26.70;96.70;;;;;;4944614;28;20059;-83
2023/07/10 04:03:45;;;;;;;8.85;4.55;;;26.70;96.70;;;;;;4928653;29;20047;-83
2023/07/10 04:06:14;;;;;;;7.03;4.68;;;26.60;96.70;;;;;;4936381;28;20611;-82
2023/07/10 04:08:44;;;;;;;6.05;4.93;;;26.50;96.70;;;;;;4935496;28;20055;-79
2023/07/10 04:11:14;;;;;;;9.55;5.10;;;26.70;96.70;;;;;;4947752;28;20047;-82
2023/07/10 04:13:43;;;;;;;5.65;4.55;;;26.60;96.70;;;;;;4929620;28;20047;-82
2023/07/10 04:16:14;;;;;;;6.82;4.65;;;26.60;96.70;;;;;;4925870;28;20042;-82
2023/07/10 04:18:44;;;;;;;5.60;4.18;;;26.50;96.70;;;;;;4941278;29;20508;-82
2023/07/10 04:21:16;;;;;;;7.40;4.63;;;26.60;96.70;;;;;;4961557;28;20122;-82
2023/07/10 04:23:44;;;;;;;6.75;4.40;;;26.70;96.70;;;;;;4931961;29;20043;-82
2023/07/10 04:26:16;;;;;;;8.00;4.45;;;26.70;96.70;;;;;;4943611;28;20053;-82
2023/07/10 04:28:47;;;;;;;6.63;4.78;;;26.60;96.70;;;;;;4948307;28;20039;-82
2023/07/10 04:31:16;;;;;;;6.53;4.85;;;26.60;96.70;;;;;;4944572;28;20054;-82
2023/07/10 04:33:45;;;;;;;6.97;4.53;;;26.50;96.70;;;;;;4943303;29;20131;-82
2023/07/10 04:36:13;;;;;;;5.10;4.55;;;26.60;96.70;;;;;;4945751;28;20079;-82
2023/07/10 04:38:41;;;;;;;9.00;5.28;;;26.60;96.70;;;;;;4962323;28;20086;-82
2023/07/10 04:41:12;;;;;;;5.65;5.03;;;26.50;96.70;;;;;;4954150;28;20055;-81
2023/07/10 04:43:40;;;;;;;7.72;4.97;;;26.50;96.70;;;;;;4949184;28;20051;-82
2023/07/10 04:46:11;;;;;;;9.07;5.35;;;26.70;96.70;;;;;;4955316;28;20046;-82
2023/07/10 04:48:39;;;;;;;8.20;4.50;;;26.60;96.70;;;;;;4941584;28;20489;-82
2023/07/10 04:51:09;;;;;;;5.68;4.68;;;26.60;96.70;;;;;;4952232;28;20051;-82
2023/07/10 04:53:37;;;;;;;7.78;4.80;;;26.60;96.70;;;;;;4952326;28;20055;-82
2023/07/10 04:56:06;;;;;;;6.93;4.65;;;26.70;96.70;;;;;;4963473;28;20065;-82
2023/07/10 04:58:50;;;;;;;5.53;5.03;;;26.60;96.70;;;;;;4965694;28;20083;-82
2023/07/10 05:01:22;;;;;;;6.40;5.28;;;26.40;96.70;;;;;;4952066;28;20196;-82
2023/07/10 05:03:50;;;;;;;6.28;5.38;;;26.40;96.70;;;;;;4943497;28;20055;-82
2023/07/10 05:06:18;;;;;;;7.03;5.07;;;26.50;96.70;;;;;;4957042;28;20173;-81
2023/07/10 05:08:46;;;;;;;9.35;4.88;;;26.50;96.70;;;;;;4965784;28;20051;-82
2023/07/10 05:11:15;;;;;;;7.22;5.00;;;26.60;96.70;;;;;;4959089;28;20130;-82
2023/07/10 05:13:43;;;;;;;9.80;5.13;;;26.60;96.70;;;;;;4959488;28;20129;-82
2023/07/10 05:20:20;;;;;;;7.47;4.57;;;26.60;96.70;;;;;;4890564;29;20056;-82
2023/07/10 05:22:48;;;;;;;6.32;4.50;;;26.70;96.70;;;;;;4879265;29;20188;-82
2023/07/10 05:25:18;;;;;;;8.18;4.68;;;26.70;96.70;;;;;;4886719;29;20071;-82
2023/07/10 05:27:49;;;;;;;7.28;5.35;;;26.80;96.70;;;;;;4873290;29;20442;-77
2023/07/10 05:30:18;;;;;;;9.07;4.60;;;26.90;96.70;;;;;;4870220;29;20198;-78
2023/07/10 05:32:46;;;;;;;10.73;5.03;;;26.90;96.70;;;;;;4866550;29;20047;-78
2023/07/10 05:35:15;;;;;;;5.63;4.93;;;26.90;96.70;;;;;;4873338;29;20064;-77
2023/07/10 05:37:45;;;;;;;9.60;5.13;;;27.00;96.70;;;;;;4887232;29;20060;-77
2023/07/10 05:40:13;;;;;;;8.43;5.03;;;26.80;96.70;;;;;;4872493;29;20111;-78
2023/07/10 05:42:43;;;;;;;5.90;4.35;;;26.90;96.70;;;;;;4888331;29;20085;-78
2023/07/10 05:45:12;;;;;;;4.95;4.45;;;26.90;96.70;;;;;;4873658;29;20587;-78
2023/07/10 05:47:41;;;;;;;7.47;5.18;;;27.10;96.70;;;;;;4872395;29;20052;-78
2023/07/10 05:50:09;;;;;;;6.35;5.15;;;27.10;96.70;;;;;;4887928;29;20729;-79
2023/07/10 05:52:37;;;;;;;6.20;4.90;;;27.10;96.70;;;;;;4881866;29;20049;-78
2023/07/10 05:55:09;;;;;;;6.85;5.45;;;27.10;96.70;;;;;;4887225;29;20124;-78
2023/07/10 05:57:37;;;;;;;7.10;4.55;;;27.00;96.70;;;;;;4937314;28;20050;-78
2023/07/10 06:00:07;;;;;;;5.72;5.13;;;27.00;96.70;;;;;;4947530;28;20113;-78
2023/07/10 06:02:37;;;;;;;6.65;5.25;;;27.20;96.70;;;;;;4941289;28;20065;-77
2023/07/10 06:05:06;;;;;;;10.65;5.43;;;27.30;96.70;;;;;;4947683;28;20050;-78
2023/07/10 06:07:34;;;;;;;8.63;5.20;;;27.30;96.70;;;;;;4946414;28;20083;-79
2023/07/10 06:10:02;;;;;;;7.53;5.25;;;27.30;96.70;;;;;;4937134;29;20144;-78
2023/07/10 06:12:31;;;;;;;7.85;4.85;;;27.40;96.70;;;;;;4945528;28;20509;-79
2023/07/10 06:14:59;;;;;;;7.03;5.07;;;27.60;96.70;;;;;;4944586;28;20425;-77
2023/07/10 06:17:28;;;;;;;7.10;5.25;;;27.60;96.70;;;;;;4949472;28;20059;-78
2023/07/10 06:19:56;;;;;;;7.32;5.75;;;27.50;96.70;;;;;;4956957;28;20454;-77
2023/07/10 06:22:24;;;;;;;7.50;4.78;;;27.50;96.70;;;;;;4956551;28;20054;-78
2023/07/10 06:24:52;;;;;;;7.57;5.03;;;27.60;96.70;;;;;;4947605;28;20043;-78
2023/07/10 06:27:20;;;;;;;9.70;6.15;;;27.60;96.70;;;;;;4947533;28;20066;-78
2023/07/10 06:29:51;;;;;;;6.88;5.30;;;27.70;96.70;;;;;;4944934;28;20453;-78
2023/07/10 06:32:19;;;;;;;6.88;5.35;;;27.70;96.70;;;;;;4951717;28;20040;-77
2023/07/10 06:34:48;;;;;;;7.43;5.55;;;27.70;96.70;;;;;;4933845;28;20227;-79
2023/07/10 06:37:16;;;;;;;6.75;5.78;;;27.80;96.70;;;;;;4938484;29;20164;-80
2023/07/10 06:39:44;;;;;;;8.57;5.82;;;27.70;96.70;;;;;;4945235;28;20039;-77
2023/07/10 06:42:13;;;;;;;13.23;6.35;;;27.80;96.70;;;;;;4938540;28;20047;-78
2023/07/10 06:44:45;;;;;;;8.85;6.30;;;27.90;96.70;;;;;;4944699;28;20047;-79
2023/07/10 06:47:15;;;;;;;10.88;6.45;;;27.90;96.70;;;;;;4931507;29;20169;-76
2023/07/10 06:49:43;;;;;;;9.10;6.63;;;27.80;96.70;;;;;;4946317;28;20046;-77
2023/07/10 06:52:11;;;;;;;13.77;7.00;;;27.80;96.70;;;;;;4947061;28;20670;-76
2023/07/10 06:54:39;;;;;;;10.63;6.82;;;27.90;96.70;;;;;;4943323;28;20046;-76
2023/07/10 06:57:07;;;;;;;13.48;6.50;;;27.90;96.70;;;;;;4944896;28;20134;-77
2023/07/10 06:59:35;;;;;;;15.68;7.65;;;28.00;96.70;;;;;;4933739;28;20536;-77
2023/07/10 07:02:04;;;;;;;9.25;7.05;;;28.10;96.70;;;;;;4953704;28;20687;-77
2023/07/10 07:04:36;;;;;;;14.45;7.47;;;28.20;96.70;;;;;;4960059;28;20051;-77
2023/07/10 07:07:17;;;;;;;10.05;6.70;;;28.20;96.70;;;;;;4954801;28;20055;-76
2023/07/10 07:09:46;;;;;;;10.82;7.32;;;28.30;96.70;;;;;;4950987;28;20484;-76
2023/07/10 07:12:13;;;;;;;13.25;7.00;;;28.40;96.70;;;;;;4931130;29;20135;-82
2023/07/10 07:14:42;;;;;;;13.05;7.40;;;28.60;96.70;;;;;;4946382;28;20466;-77
2023/07/10 07:17:10;;;;;;;9.70;6.03;;;28.70;96.70;;;;;;4934810;29;20501;-77
2023/07/10 07:19:41;;;;;;;8.90;5.78;;;28.80;96.70;;;;;;4945478;28;20051;-77
2023/07/10 07:22:09;;;;;;;8.27;5.32;;;28.90;96.70;;;;;;4929697;28;20051;-79
2023/07/10 07:24:37;;;;;;;7.88;5.72;;;29.00;96.70;;;;;;4940994;28;20066;-77
2023/07/10 07:27:07;;;;;;;11.15;5.95;;;29.10;96.70;;;;;;4946654;28;20130;-77
2023/07/10 07:29:35;;;;;;;6.47;5.20;;;29.10;96.70;;;;;;4944188;28;20044;-76
2023/07/10 07:32:04;;;;;;;8.23;5.70;;;29.20;96.70;;;;;;4928175;28;20505;-76
2023/07/10 07:34:32;;;;;;;6.18;5.32;;;29.20;96.70;;;;;;4944293;28;20051;-77
2023/07/10 07:37:05;;;;;;;7.00;5.28;;;29.20;96.70;;;;;;4945719;28;20142;-77
2023/07/10 07:39:33;;;;;;;7.03;5.25;;;29.30;96.70;;;;;;4942383;28;20058;-76
2023/07/10 07:42:02;;;;;;;8.32;5.85;;;29.30;96.70;;;;;;4937916;29;20612;-77
2023/07/10 07:44:30;;;;;;;7.38;5.45;;;29.50;96.70;;;;;;4945964;28;20070;-77
2023/07/10 07:47:00;;;;;;;8.15;5.65;;;29.60;96.70;;;;;;4944529;28;20059;-77
2023/07/10 07:49:33;;;;;;;7.18;5.35;;;29.60;96.70;;;;;;4954136;28;20493;-76
2023/07/10 07:52:02;;;;;;;8.40;5.85;;;29.60;96.70;;;;;;4941156;29;20083;-77
2023/07/10 07:54:32;;;;;;;7.70;5.72;;;29.60;96.70;;;;;;4942563;28;20079;-77
2023/07/10 07:57:00;;;;;;;6.25;5.20;;;29.70;96.70;;;;;;4945687;28;20047;-77
2023/07/10 07:59:29;;;;;;;9.13;6.00;;;29.70;96.70;;;;;;4942218;28;20824;-77
2023/07/10 08:01:57;;;;;;;7.03;5.35;;;29.80;96.70;;;;;;4945977;28;20039;-77
2023/07/10 08:04:25;;;;;;;11.05;5.70;;;29.80;96.70;;;;;;4960084;28;20039;-77
2023/07/10 08:06:53;;;;;;;10.57;5.20;;;29.90;96.70;;;;;;4929528;28;20047;-77
2023/07/10 08:09:23;;;;;;;6.80;5.07;;;30.00;96.70;;;;;;4944768;28;20048;-77
2023/07/10 08:11:51;;;;;;;7.07;5.47;;;30.10;96.70;;;;;;4925185;29;20142;-76
2023/07/10 08:14:19;;;;;;;11.10;5.57;;;30.10;96.70;;;;;;4926643;29;20150;-77
2023/07/10 08:16:47;;;;;;;8.10;5.63;;;30.20;96.70;;;;;;4925471;29;20842;-77
2023/07/10 08:19:16;;;;;;;9.25;5.25;;;30.30;96.70;;;;;;4929614;29;20048;-77
2023/07/10 08:22:43;;;;;;;9.88;5.50;;;30.30;96.70;;;;;;4899201;29;20063;-78
2023/07/10 08:25:27;;;;;;;7.82;5.20;;;30.40;96.70;;;;;;4945455;28;20052;-77
2023/07/10 08:27:58;;;;;;;7.40;5.43;;;30.50;96.70;;;;;;4944998;28;20876;-77
2023/07/10 08:30:26;;;;;;;6.28;5.30;;;30.50;96.70;;;;;;4929729;29;20048;-77
2023/07/10 08:32:55;;;;;;;8.25;5.47;;;30.50;96.70;;;;;;4944673;28;20541;-77
2023/07/10 08:35:24;;;;;;;7.50;4.82;;;30.60;96.70;;;;;;4930928;29;20048;-77
2023/07/10 08:37:52;;;;;;;13.95;5.72;;;30.70;96.70;;;;;;4912509;29;20074;-77
2023/07/10 08:40:29;;;;;;;8.88;5.30;;;30.90;96.70;;;;;;4930236;29;20063;-77
2023/07/10 08:43:01;;;;;;;8.65;5.10;;;31.00;96.70;;;;;;4928753;29;20509;-77
2023/07/10 08:45:33;;;;;;;6.55;5.10;;;30.90;96.70;;;;;;4928061;29;20518;-76
2023/07/10 08:48:16;;;;;;;6.43;5.38;;;31.00;96.70;;;;;;4929887;29;20070;-77
2023/07/10 08:50:47;;;;;;;10.27;5.15;;;31.00;96.70;;;;;;4924149;29;20091;-77
2023/07/10 08:53:21;;;;;;;8.55;4.97;;;31.10;96.70;;;;;;4930240;29;20052;-77
2023/07/10 08:55:58;;;;;;;7.22;4.63;;;31.20;96.70;;;;;;4930071;29;20056;-77
2023/07/10 08:58:29;;;;;;;7.57;4.78;;;31.30;96.70;;;;;;4930269;29;20119;-79
2023/07/10 09:01:00;;;;;;;6.85;4.72;;;31.40;96.70;;;;;;4929752;29;20043;-76
2023/07/10 09:03:38;;;;;;;10.77;5.78;;;31.40;96.70;;;;;;4928531;29;20047;-77
2023/07/10 09:06:17;;;;;;;8.90;5.25;;;31.40;96.70;;;;;;4935386;28;20062;-77
2023/07/10 09:08:50;;;;;;;8.95;5.47;;;31.60;96.70;;;;;;4947749;28;20505;-77
2023/07/10 09:11:20;;;;;;;10.27;4.75;;;31.70;96.70;;;;;;4947390;28;20409;-77
2023/07/10 09:13:55;;;;;;;7.10;4.60;;;31.80;96.70;;;;;;4949144;28;20126;-77
2023/07/10 09:16:25;;;;;;;10.27;5.23;;;31.90;96.70;;;;;;4962537;28;20047;-77
2023/07/10 09:18:58;;;;;;;9.77;5.53;;;32.00;96.70;;;;;;4963429;28;20047;-77
2023/07/10 09:21:35;;;;;;;6.07;4.40;;;32.10;96.70;;;;;;4949225;28;20058;-77
2023/07/10 09:24:06;;;;;;;7.57;4.60;;;32.10;96.70;;;;;;4954471;28;20051;-77
2023/07/10 09:26:38;;;;;;;6.60;4.90;;;32.10;96.70;;;;;;4948665;28;20050;-77
2023/07/10 09:29:40;;;;;;;6.53;4.78;;;32.10;96.70;;;;;;4941238;28;20047;-77
2023/07/10 09:32:12;;;;;;;8.30;4.72;;;32.20;96.70;;;;;;4888343;29;20148;-77
2023/07/10 09:34:46;;;;;;;9.18;5.40;;;32.20;96.70;;;;;;4880481;29;20657;-77
2023/07/10 09:37:17;;;;;;;18.15;6.28;;;32.30;96.70;;;;;;4888955;29;20153;-77
2023/07/10 09:39:45;;;;;;;10.32;5.32;;;32.40;96.70;;;;;;4888430;29;20053;-77
2023/07/10 09:42:18;;;;;;;8.93;5.78;;;32.50;96.70;;;;;;4888090;29;20056;-78
2023/07/10 09:44:51;;;;;;;8.70;6.15;;;32.50;96.70;;;;;;4886817;29;20053;-77
2023/07/10 09:47:21;;;;;;;8.95;6.53;;;32.50;96.70;;;;;;4879485;29;20583;-78
2023/07/10 09:49:58;;;;;;;8.13;5.85;;;32.60;96.70;;;;;;4877568;29;20630;-76
2023/07/10 09:52:29;;;;;;;9.30;6.20;;;32.70;96.70;;;;;;4888389;29;20127;-77
2023/07/10 09:55:00;;;;;;;15.70;7.18;;;32.80;96.70;;;;;;4872684;29;20064;-78
2023/07/10 09:57:29;;;;;;;9.45;6.80;;;32.90;96.70;;;;;;4888195;29;20060;-77
2023/07/10 09:59:59;;;;;;;13.30;7.25;;;33.00;96.70;;;;;;4887417;29;20087;-77
2023/07/10 10:02:39;;;;;;;14.50;7.72;;;33.10;96.70;;;;;;4888117;29;20605;-77
2023/07/10 10:05:17;;;;;;;11.65;7.80;;;33.20;96.70;;;;;;4887441;29;20052;-76
2023/07/10 10:07:47;;;;;;;10.07;6.50;;;33.30;96.70;;;;;;4891779;29;20506;-77
2023/07/10 10:10:33;;;;;;;14.32;7.65;;;33.40;96.70;;;;;;4942947;28;20047;-76
2023/07/10 10:13:04;;;;;;;;;;;33.50;96.70;;;;;;4943356;28;20051;-76
2023/07/10 10:15:44;;;;;;;13.57;7.38;;;33.50;96.70;;;;;;4942518;28;19933;-76
2023/07/10 10:18:30;;;;;;;8.88;6.68;;;33.60;96.70;;;;;;4947562;28;20047;-78
2023/07/10 10:21:02;;;;;;;11.57;7.07;;;33.70;96.70;;;;;;4960190;28;20469;-77
2023/07/10 10:23:32;;;;;;;11.00;7.18;;;34.00;96.70;;;;;;4940164;28;20047;-77
2023/07/10 10:26:18;;;;;;;10.65;7.45;;;34.00;96.70;;;;;;4947924;28;20168;-78
2023/07/10 10:28:54;;;;;;;13.68;7.38;;;34.00;96.70;;;;;;4943732;29;20552;-76
2023/07/10 10:31:26;;;;;;;11.95;6.40;;;33.90;96.70;;;;;;4961109;28;20054;-77
2023/07/10 10:34:00;;;;;;;10.77;6.85;;;34.00;96.70;;;;;;4947521;28;20134;-77
2023/07/10 10:36:38;;;;;;;10.40;6.93;;;34.10;96.70;;;;;;4956068;28;20039;-77
2023/07/10 10:39:14;;;;;;;12.98;7.00;;;34.30;96.70;;;;;;4944616;28;20409;-76
2023/07/10 10:41:48;;;;;;;7.80;6.32;;;34.40;96.70;;;;;;4946912;28;20447;-77
2023/07/10 10:44:32;;;;;;;9.82;6.82;;;34.60;96.70;;;;;;4960983;28;20135;-76
2023/07/10 10:47:16;;;;;;;11.90;6.53;;;34.60;96.70;;;;;;4960659;28;20114;-76
2023/07/10 10:50:05;;;;;;;8.70;5.57;;;34.60;96.70;;;;;;4937513;29;20043;-76
2023/07/10 10:52:42;;;;;;;7.45;5.32;;;34.60;96.70;;;;;;4945014;29;20059;-76
2023/07/10 10:55:24;;;;;;;8.32;6.13;;;34.70;96.70;;;;;;4947150;28;20075;-77
2023/07/10 10:58:15;;;;;;;10.48;5.78;;;34.80;96.70;;;;;;4947417;28;20051;-77
2023/07/10 11:01:01;;;;;;;7.97;5.88;;;34.80;96.70;;;;;;4946112;28;20806;-77
2023/07/10 11:03:35;;;;;;;8.25;5.40;;;35.10;96.70;;;;;;4948932;28;20130;-77
2023/07/10 11:06:33;;;;;;;8.30;5.40;;;35.30;96.70;;;;;;4943783;28;20063;-78
2023/07/10 11:09:06;;;;;;;10.60;5.57;;;35.40;96.70;;;;;;4946375;28;20137;-77
2023/07/10 11:11:38;;;;;;;7.43;5.30;;;35.30;96.70;;;;;;4960445;28;20058;-77
2023/07/10 11:14:06;;;;;;;5.82;4.95;;;35.30;96.70;;;;;;4960430;28;20106;-77
2023/07/10 11:16:37;;;;;;;7.68;5.25;;;35.60;96.70;;;;;;4945753;28;20043;-77
2023/07/10 11:19:06;;;;;;;6.93;5.28;;;35.70;96.70;;;;;;4960834;28;20082;-77
2023/07/10 11:21:34;;;;;;;7.72;5.90;;;35.80;96.70;;;;;;4946582;28;20039;-77
2023/07/10 11:24:34;;;;;;;7.05;5.78;;;35.90;96.70;;;;;;4960247;28;20074;-77
2023/07/10 11:27:12;;;;;;;9.30;5.00;;;36.10;96.70;;;;;;4961111;28;20132;-77
2023/07/10 11:29:43;;;;;;;9.38;4.93;;;36.00;96.70;;;;;;4960408;28;20126;-76
2023/07/10 11:32:16;;;;;;;7.60;5.22;;;35.90;96.70;;;;;;4960289;28;20174;-77
2023/07/10 11:35:13;;;;;;;6.43;5.05;;;35.90;96.70;;;;;;4953817;28;20502;-77
2023/07/10 11:38:11;;;;;;;9.00;5.25;;;35.90;96.70;;;;;;4943361;28;20106;-77
2023/07/10 11:41:07;;;;;;;7.50;4.93;;;36.10;96.70;;;;;;4937353;28;20502;-77
2023/07/10 11:44:12;;;;;;;7.45;5.10;;;36.10;96.70;;;;;;4944367;29;20055;-76
2023/07/10 11:46:59;;;;;;;6.68;4.95;;;36.10;96.70;;;;;;4941921;28;20043;-77
2023/07/10 11:49:45;;;;;;;8.25;4.97;;;36.20;96.70;;;;;;4945615;28;20039;-77
2023/07/10 11:52:31;;;;;;;7.97;4.65;;;36.20;96.70;;;;;;4944678;29;20054;-78
2023/07/10 11:55:25;;;;;;;9.80;4.82;;;36.20;96.70;;;;;;4959937;28;20051;-77
2023/07/10 11:58:24;;;;;;;6.47;4.68;;;36.40;96.70;;;;;;4936321;28;20074;-77
2023/07/10 12:01:11;;;;;;;8.02;4.72;;;36.60;96.70;;;;;;4945404;28;20043;-78
2023/07/10 12:03:42;;;;;;;7.30;5.20;;;36.70;96.70;;;;;;4953655;28;20382;-77
2023/07/10 12:06:16;;;;;;;6.65;4.78;;;36.70;96.70;;;;;;4954992;28;20051;-77
2023/07/10 12:08:45;;;;;;;7.40;5.00;;;36.80;96.70;;;;;;4951367;28;20051;-76
2023/07/10 12:11:27;;;;;;;7.38;4.55;;;36.80;96.70;;;;;;4941913;28;20062;-77
2023/07/10 12:14:01;;;;;;;8.88;4.53;;;36.90;96.70;;;;;;4943933;28;20542;-77
2023/07/10 12:16:30;;;;;;;6.43;4.63;;;36.90;96.70;;;;;;4940018;28;20100;-79
2023/07/10 12:19:16;;;;;;;5.68;4.28;;;36.90;96.70;;;;;;4949298;28;20198;-78
2023/07/10 12:21:46;;;;;;;10.02;4.40;;;36.90;96.70;;;;;;4944951;28;20035;-79
2023/07/10 12:24:16;;;;;;;7.20;4.57;;;37.10;96.70;;;;;;4939857;28;20055;-77
2023/07/10 12:26:50;;;;;;;7.85;4.70;;;37.20;96.70;;;;;;4950187;28;20055;-77
2023/07/10 12:29:48;;;;;;;6.65;4.80;;;37.20;96.70;;;;;;4948295;28;20101;-78
2023/07/10 12:32:16;;;;;;;7.65;5.53;;;37.30;96.70;;;;;;4956262;28;20141;-78
2023/07/10 12:34:46;;;;;;;6.40;4.93;;;37.30;96.70;;;;;;4925298;28;20047;-78
2023/07/10 12:37:17;;;;;;;8.30;4.47;;;37.30;96.70;;;;;;4944532;28;20136;-78
2023/07/10 12:39:49;;;;;;;9.00;5.00;;;37.20;96.70;;;;;;4946188;28;20525;-77
2023/07/10 12:42:26;;;;;;;6.85;5.30;;;37.10;96.70;;;;;;4930676;28;20039;-77
2023/07/10 12:44:54;;;;;;;9.40;5.28;;;37.00;96.70;;;;;;4933795;28;20058;-77
2023/07/10 12:47:22;;;;;;;7.38;4.90;;;37.10;96.70;;;;;;4952810;28;20043;-77
2023/07/10 12:49:52;;;;;;;7.55;4.90;;;37.00;96.70;;;;;;4955081;28;20047;-78
2023/07/10 12:52:26;;;;;;;9.65;5.18;;;37.10;96.70;;;;;;4945426;28;20469;-77
2023/07/10 12:54:54;;;;;;;6.32;5.07;;;37.20;96.70;;;;;;4959255;28;20075;-77
2023/07/10 12:57:26;;;;;;;8.90;5.13;;;37.20;96.70;;;;;;4955219;28;20051;-77
2023/07/10 12:59:58;;;;;;;10.57;5.00;;;37.30;96.70;;;;;;4942390;28;20035;-78
2023/07/10 13:02:28;;;;;;;7.47;5.22;;;37.40;96.70;;;;;;4958445;28;20529;-79
2023/07/10 13:05:02;;;;;;;11.02;5.80;;;37.50;96.70;;;;;;4954258;28;20043;-78
2023/07/10 13:07:38;;;;;;;7.03;5.07;;;37.60;96.70;;;;;;4945356;28;20078;-77
2023/07/10 13:10:21;;;;;;;8.50;5.72;;;37.70;96.70;;;;;;4953835;28;20101;-77
2023/07/10 13:12:51;;;;;;;7.57;5.43;;;37.70;96.70;;;;;;4955900;28;20057;-77
2023/07/10 13:15:21;;;;;;;9.52;5.45;;;37.90;96.70;;;;;;4949123;28;20560;-77